Terminal Aerodrome Forecast
Issued by NWS

Home | Current Version | Previous Version | Text Only | Print | Product List | Glossary On
Versions: 1 2 3 4 5 6 7 8 9 10 11 12 13 14 15 16
000
FTUS44 KLIX 192300
TAFMSY
TAF
KMSY 192332Z 2000/2024 10010KT P6SM SCT035 SCT060
     FM200300 09007KT P6SM SCT250
     FM201300 06011KT P6SM SCT250
     FM201700 08012KT P6SM SCT045=

USA.gov is the U.S. government's official web portal to all federal, state and local government web resources and services.